sensor_id;sensor_type;location;lat;lon;timestamp;temperature;humidity
77056;SHT30;67471;44.918;8.614;2023-08-17T00:01:15;27.89;54.54
77056;SHT30;67471;44.918;8.614;2023-08-17T00:04:18;27.88;54.11
77056;SHT30;67471;44.918;8.614;2023-08-17T00:07:22;27.80;53.85
77056;SHT30;67471;44.918;8.614;2023-08-17T00:10:25;27.77;51.99
77056;SHT30;67471;44.918;8.614;2023-08-17T00:13:28;27.75;51.79
77056;SHT30;67471;44.918;8.614;2023-08-17T00:16:32;27.80;51.53
77056;SHT30;67471;44.918;8.614;2023-08-17T00:19:38;27.78;50.68
77056;SHT30;67471;44.918;8.614;2023-08-17T00:22:41;27.84;49.02
77056;SHT30;67471;44.918;8.614;2023-08-17T00:25:46;27.72;48.87
77056;SHT30;67471;44.918;8.614;2023-08-17T00:28:51;27.71;49.14
77056;SHT30;67471;44.918;8.614;2023-08-17T00:31:54;27.92;48.45
77056;SHT30;67471;44.918;8.614;2023-08-17T00:34:57;28.03;48.04
77056;SHT30;67471;44.918;8.614;2023-08-17T00:38:05;27.96;48.27
77056;SHT30;67471;44.918;8.614;2023-08-17T00:41:09;27.98;47.66
77056;SHT30;67471;44.918;8.614;2023-08-17T00:44:12;27.85;48.47
77056;SHT30;67471;44.918;8.614;2023-08-17T00:47:16;27.92;48.36
77056;SHT30;67471;44.918;8.614;2023-08-17T00:50:19;27.88;48.36
77056;SHT30;67471;44.918;8.614;2023-08-17T00:53:23;27.86;48.78
77056;SHT30;67471;44.918;8.614;2023-08-17T00:56:29;27.89;48.78
77056;SHT30;67471;44.918;8.614;2023-08-17T00:59:33;27.89;48.61
77056;SHT30;67471;44.918;8.614;2023-08-17T01:02:37;28.02;48.69
77056;SHT30;67471;44.918;8.614;2023-08-17T01:05:41;27.91;49.71
77056;SHT30;67471;44.918;8.614;2023-08-17T01:08:47;27.80;50.32
77056;SHT30;67471;44.918;8.614;2023-08-17T01:11:59;27.82;51.33
77056;SHT30;67471;44.918;8.614;2023-08-17T01:18:11;27.77;55.02
77056;SHT30;67471;44.918;8.614;2023-08-17T01:21:18;27.41;57.56
77056;SHT30;67471;44.918;8.614;2023-08-17T01:24:22;27.27;59.10
77056;SHT30;67471;44.918;8.614;2023-08-17T01:27:25;26.82;59.36
77056;SHT30;67471;44.918;8.614;2023-08-17T01:30:30;26.82;60.58
77056;SHT30;67471;44.918;8.614;2023-08-17T01:33:40;26.53;61.42
77056;SHT30;67471;44.918;8.614;2023-08-17T01:36:50;26.46;63.63
77056;SHT30;67471;44.918;8.614;2023-08-17T01:39:55;26.44;63.40
77056;SHT30;67471;44.918;8.614;2023-08-17T01:43:00;26.39;63.95
77056;SHT30;67471;44.918;8.614;2023-08-17T01:46:04;26.31;63.93
77056;SHT30;67471;44.918;8.614;2023-08-17T01:49:07;26.28;64.76
77056;SHT30;67471;44.918;8.614;2023-08-17T01:52:11;26.18;63.65
77056;SHT30;67471;44.918;8.614;2023-08-17T01:55:15;26.09;64.62
77056;SHT30;67471;44.918;8.614;2023-08-17T01:58:19;26.08;64.56
77056;SHT30;67471;44.918;8.614;2023-08-17T02:01:23;26.08;65.64
77056;SHT30;67471;44.918;8.614;2023-08-17T02:04:27;25.84;66.36
77056;SHT30;67471;44.918;8.614;2023-08-17T02:07:30;25.87;66.00
77056;SHT30;67471;44.918;8.614;2023-08-17T02:10:33;25.73;66.56
77056;SHT30;67471;44.918;8.614;2023-08-17T02:13:37;25.69;66.92
77056;SHT30;67471;44.918;8.614;2023-08-17T02:16:40;25.47;67.72
77056;SHT30;67471;44.918;8.614;2023-08-17T02:19:44;25.32;68.34
77056;SHT30;67471;44.918;8.614;2023-08-17T02:22:48;25.27;68.20
77056;SHT30;67471;44.918;8.614;2023-08-17T02:25:51;25.16;68.69
77056;SHT30;67471;44.918;8.614;2023-08-17T02:28:54;25.13;68.82
77056;SHT30;67471;44.918;8.614;2023-08-17T02:31:57;25.22;68.76
77056;SHT30;67471;44.918;8.614;2023-08-17T02:35:06;25.23;68.93
77056;SHT30;67471;44.918;8.614;2023-08-17T02:38:10;25.32;68.52
77056;SHT30;67471;44.918;8.614;2023-08-17T02:41:13;25.23;68.85
77056;SHT30;67471;44.918;8.614;2023-08-17T02:44:17;25.23;69.15
77056;SHT30;67471;44.918;8.614;2023-08-17T02:47:20;25.19;69.69
77056;SHT30;67471;44.918;8.614;2023-08-17T02:50:25;25.30;69.50
77056;SHT30;67471;44.918;8.614;2023-08-17T02:53:29;25.36;69.58
77056;SHT30;67471;44.918;8.614;2023-08-17T02:56:32;25.30;69.34
77056;SHT30;67471;44.918;8.614;2023-08-17T02:59:36;25.27;70.12
77056;SHT30;67471;44.918;8.614;2023-08-17T03:02:39;25.30;69.73
77056;SHT30;67471;44.918;8.614;2023-08-17T03:05:42;25.18;70.23
77056;SHT30;67471;44.918;8.614;2023-08-17T03:08:45;25.13;69.70
77056;SHT30;67471;44.918;8.614;2023-08-17T03:11:48;25.12;69.71
77056;SHT30;67471;44.918;8.614;2023-08-17T03:14:51;24.91;70.06
77056;SHT30;67471;44.918;8.614;2023-08-17T03:17:55;24.84;70.33
77056;SHT30;67471;44.918;8.614;2023-08-17T03:20:59;24.84;69.88
77056;SHT30;67471;44.918;8.614;2023-08-17T03:24:02;24.91;69.51
77056;SHT30;67471;44.918;8.614;2023-08-17T03:27:06;24.85;69.50
77056;SHT30;67471;44.918;8.614;2023-08-17T03:30:10;24.95;69.55
77056;SHT30;67471;44.918;8.614;2023-08-17T03:33:13;24.91;69.55
77056;SHT30;67471;44.918;8.614;2023-08-17T03:36:17;24.98;69.35
77056;SHT30;67471;44.918;8.614;2023-08-17T03:39:20;24.95;69.44
77056;SHT30;67471;44.918;8.614;2023-08-17T03:42:24;25.05;69.14
77056;SHT30;67471;44.918;8.614;2023-08-17T03:45:28;24.92;69.44
77056;SHT30;67471;44.918;8.614;2023-08-17T03:48:32;24.95;69.44
77056;SHT30;67471;44.918;8.614;2023-08-17T03:51:36;24.98;69.09
77056;SHT30;67471;44.918;8.614;2023-08-17T03:54:39;24.99;68.89
77056;SHT30;67471;44.918;8.614;2023-08-17T03:57:43;25.01;68.75
77056;SHT30;67471;44.918;8.614;2023-08-17T04:00:53;24.99;68.82
77056;SHT30;67471;44.918;8.614;2023-08-17T04:04:02;25.02;68.84
77056;SHT30;67471;44.918;8.614;2023-08-17T04:07:06;25.06;68.89
77056;SHT30;67471;44.918;8.614;2023-08-17T04:10:10;25.06;68.53
77056;SHT30;67471;44.918;8.614;2023-08-17T04:13:14;25.09;68.62
77056;SHT30;67471;44.918;8.614;2023-08-17T04:16:17;25.09;68.80
77056;SHT30;67471;44.918;8.614;2023-08-17T04:19:20;25.08;68.76
77056;SHT30;67471;44.918;8.614;2023-08-17T04:22:24;25.02;68.56
77056;SHT30;67471;44.918;8.614;2023-08-17T04:25:27;24.92;68.73
77056;SHT30;67471;44.918;8.614;2023-08-17T04:28:31;24.76;69.45
77056;SHT30;67471;44.918;8.614;2023-08-17T04:31:35;24.72;69.33
77056;SHT30;67471;44.918;8.614;2023-08-17T04:34:41;24.67;69.35
77056;SHT30;67471;44.918;8.614;2023-08-17T04:37:44;24.69;69.11
77056;SHT30;67471;44.918;8.614;2023-08-17T04:40:48;24.65;68.92
77056;SHT30;67471;44.918;8.614;2023-08-17T04:43:52;24.71;68.64
77056;SHT30;67471;44.918;8.614;2023-08-17T04:46:55;24.81;68.32
77056;SHT30;67471;44.918;8.614;2023-08-17T04:49:59;24.84;68.19
77056;SHT30;67471;44.918;8.614;2023-08-17T04:53:02;24.75;68.53
77056;SHT30;67471;44.918;8.614;2023-08-17T04:56:06;24.68;68.58
77056;SHT30;67471;44.918;8.614;2023-08-17T04:59:10;24.85;68.15
77056;SHT30;67471;44.918;8.614;2023-08-17T05:02:13;24.91;68.04
77056;SHT30;67471;44.918;8.614;2023-08-17T05:05:17;24.92;67.91
77056;SHT30;67471;44.918;8.614;2023-08-17T05:08:20;24.95;68.21
77056;SHT30;67471;44.918;8.614;2023-08-17T05:11:26;25.02;67.56
77056;SHT30;67471;44.918;8.614;2023-08-17T05:14:30;25.09;67.37
77056;SHT30;67471;44.918;8.614;2023-08-17T05:17:33;25.16;66.69
77056;SHT30;67471;44.918;8.614;2023-08-17T05:20:37;25.04;67.18
77056;SHT30;67471;44.918;8.614;2023-08-17T05:23:41;24.95;67.21
77056;SHT30;67471;44.918;8.614;2023-08-17T05:26:44;24.48;68.83
77056;SHT30;67471;44.918;8.614;2023-08-17T05:29:50;24.47;69.30
77056;SHT30;67471;44.918;8.614;2023-08-17T05:32:54;24.43;69.46
77056;SHT30;67471;44.918;8.614;2023-08-17T05:36:01;24.38;69.69
77056;SHT30;67471;44.918;8.614;2023-08-17T05:39:04;24.44;69.74
77056;SHT30;67471;44.918;8.614;2023-08-17T05:42:10;24.36;69.96
77056;SHT30;67471;44.918;8.614;2023-08-17T05:45:13;24.60;69.19
77056;SHT30;67471;44.918;8.614;2023-08-17T05:48:20;24.60;69.07
77056;SHT30;67471;44.918;8.614;2023-08-17T05:51:24;24.69;68.70
77056;SHT30;67471;44.918;8.614;2023-08-17T05:54:27;24.86;67.44
77056;SHT30;67471;44.918;8.614;2023-08-17T05:57:31;24.91;67.30
77056;SHT30;67471;44.918;8.614;2023-08-17T06:00:34;24.94;67.18
77056;SHT30;67471;44.918;8.614;2023-08-17T06:03:38;25.13;66.70
77056;SHT30;67471;44.918;8.614;2023-08-17T06:06:41;25.20;66.30
77056;SHT30;67471;44.918;8.614;2023-08-17T06:09:44;25.32;65.79
77056;SHT30;67471;44.918;8.614;2023-08-17T06:12:48;25.46;65.48
77056;SHT30;67471;44.918;8.614;2023-08-17T06:15:51;25.64;64.60
77056;SHT30;67471;44.918;8.614;2023-08-17T06:18:54;26.18;63.51
77056;SHT30;67471;44.918;8.614;2023-08-17T06:21:58;26.94;60.90
77056;SHT30;67471;44.918;8.614;2023-08-17T06:25:02;27.47;59.35
77056;SHT30;67471;44.918;8.614;2023-08-17T06:28:06;27.93;58.03
77056;SHT30;67471;44.918;8.614;2023-08-17T06:31:10;28.63;56.51
77056;SHT30;67471;44.918;8.614;2023-08-17T06:34:13;28.65;56.56
77056;SHT30;67471;44.918;8.614;2023-08-17T06:37:16;28.46;56.15
77056;SHT30;67471;44.918;8.614;2023-08-17T06:40:19;28.39;56.45
77056;SHT30;67471;44.918;8.614;2023-08-17T06:43:23;28.84;55.43
77056;SHT30;67471;44.918;8.614;2023-08-17T06:46:26;29.52;54.24
77056;SHT30;67471;44.918;8.614;2023-08-17T06:49:31;30.27;52.20
77056;SHT30;67471;44.918;8.614;2023-08-17T06:52:35;30.69;51.27
77056;SHT30;67471;44.918;8.614;2023-08-17T06:55:38;31.06;50.38
77056;SHT30;67471;44.918;8.614;2023-08-17T06:58:45;31.41;50.22
77056;SHT30;67471;44.918;8.614;2023-08-17T07:01:48;31.59;49.47
77056;SHT30;67471;44.918;8.614;2023-08-17T07:04:51;31.68;49.25
77056;SHT30;67471;44.918;8.614;2023-08-17T07:07:54;31.88;48.74
77056;SHT30;67471;44.918;8.614;2023-08-17T07:10:58;32.19;48.31
77056;SHT30;67471;44.918;8.614;2023-08-17T07:14:01;32.49;46.50
77056;SHT30;67471;44.918;8.614;2023-08-17T07:17:05;32.32;47.53
77056;SHT30;67471;44.918;8.614;2023-08-17T07:20:08;32.08;48.44
77056;SHT30;67471;44.918;8.614;2023-08-17T07:23:13;32.17;48.47
77056;SHT30;67471;44.918;8.614;2023-08-17T07:26:16;32.55;48.06
77056;SHT30;67471;44.918;8.614;2023-08-17T07:29:22;32.84;46.66
77056;SHT30;67471;44.918;8.614;2023-08-17T07:32:25;33.02;46.71
77056;SHT30;67471;44.918;8.614;2023-08-17T07:35:29;33.23;46.39
77056;SHT30;67471;44.918;8.614;2023-08-17T07:38:32;33.38;46.02
77056;SHT30;67471;44.918;8.614;2023-08-17T07:41:36;33.48;46.11
77056;SHT30;67471;44.918;8.614;2023-08-17T07:44:39;33.81;45.51
77056;SHT30;67471;44.918;8.614;2023-08-17T07:47:43;34.04;45.07
77056;SHT30;67471;44.918;8.614;2023-08-17T07:50:50;34.25;44.83
77056;SHT30;67471;44.918;8.614;2023-08-17T07:53:54;34.57;43.08
77056;SHT30;67471;44.918;8.614;2023-08-17T07:56:57;34.79;42.90
77056;SHT30;67471;44.918;8.614;2023-08-17T08:00:00;34.87;42.41
77056;SHT30;67471;44.918;8.614;2023-08-17T08:03:04;35.05;41.49
77056;SHT30;67471;44.918;8.614;2023-08-17T08:06:07;35.08;41.59
77056;SHT30;67471;44.918;8.614;2023-08-17T08:09:11;35.24;40.67
77056;SHT30;67471;44.918;8.614;2023-08-17T08:12:15;35.48;40.57
77056;SHT30;67471;44.918;8.614;2023-08-17T08:15:18;35.45;40.30
77056;SHT30;67471;44.918;8.614;2023-08-17T08:18:23;35.49;39.49
77056;SHT30;67471;44.918;8.614;2023-08-17T08:21:26;35.55;39.85
77056;SHT30;67471;44.918;8.614;2023-08-17T08:24:31;35.48;39.94
77056;SHT30;67471;44.918;8.614;2023-08-17T08:27:37;35.59;39.20
77056;SHT30;67471;44.918;8.614;2023-08-17T08:30:41;35.73;38.98
77056;SHT30;67471;44.918;8.614;2023-08-17T08:33:44;35.90;38.19
77056;SHT30;67471;44.918;8.614;2023-08-17T08:36:49;36.17;38.15
77056;SHT30;67471;44.918;8.614;2023-08-17T08:39:55;36.47;37.69
77056;SHT30;67471;44.918;8.614;2023-08-17T08:42:58;36.64;37.64
77056;SHT30;67471;44.918;8.614;2023-08-17T08:46:03;36.58;37.54
77056;SHT30;67471;44.918;8.614;2023-08-17T08:49:07;36.77;37.06
77056;SHT30;67471;44.918;8.614;2023-08-17T08:52:12;36.45;36.85
77056;SHT30;67471;44.918;8.614;2023-08-17T08:55:18;36.12;37.71
77056;SHT30;67471;44.918;8.614;2023-08-17T08:58:22;36.04;37.86
77056;SHT30;67471;44.918;8.614;2023-08-17T09:01:25;36.12;37.75
77056;SHT30;67471;44.918;8.614;2023-08-17T09:04:29;35.93;37.64
77056;SHT30;67471;44.918;8.614;2023-08-17T09:07:33;35.56;37.25
77056;SHT30;67471;44.918;8.614;2023-08-17T09:10:37;35.46;37.64
77056;SHT30;67471;44.918;8.614;2023-08-17T09:13:41;35.30;37.76
77056;SHT30;67471;44.918;8.614;2023-08-17T09:16:44;35.46;38.23
77056;SHT30;67471;44.918;8.614;2023-08-17T09:19:51;35.13;38.96
77056;SHT30;67471;44.918;8.614;2023-08-17T09:22:55;35.08;39.70
77056;SHT30;67471;44.918;8.614;2023-08-17T09:26:05;35.69;39.26
77056;SHT30;67471;44.918;8.614;2023-08-17T09:29:17;36.04;38.26
77056;SHT30;67471;44.918;8.614;2023-08-17T09:32:21;36.04;38.16
77056;SHT30;67471;44.918;8.614;2023-08-17T09:35:25;35.68;38.72
77056;SHT30;67471;44.918;8.614;2023-08-17T09:38:29;35.93;38.28
77056;SHT30;67471;44.918;8.614;2023-08-17T09:41:41;36.12;37.63
77056;SHT30;67471;44.918;8.614;2023-08-17T09:44:44;36.13;37.18
77056;SHT30;67471;44.918;8.614;2023-08-17T09:47:48;36.13;37.20
77056;SHT30;67471;44.918;8.614;2023-08-17T09:50:52;36.45;37.28
77056;SHT30;67471;44.918;8.614;2023-08-17T09:53:55;36.95;36.66
77056;SHT30;67471;44.918;8.614;2023-08-17T09:57:01;36.81;36.57
77056;SHT30;67471;44.918;8.614;2023-08-17T10:00:05;37.09;36.07
77056;SHT30;67471;44.918;8.614;2023-08-17T10:03:10;37.17;35.71
77056;SHT30;67471;44.918;8.614;2023-08-17T10:06:15;37.23;35.60
77056;SHT30;67471;44.918;8.614;2023-08-17T10:09:21;37.38;35.50
77056;SHT30;67471;44.918;8.614;2023-08-17T10:12:27;37.46;35.63
77056;SHT30;67471;44.918;8.614;2023-08-17T10:15:31;37.56;34.98
77056;SHT30;67471;44.918;8.614;2023-08-17T10:22:00;37.63;34.68
77056;SHT30;67471;44.918;8.614;2023-08-17T10:25:06;37.87;34.04
77056;SHT30;67471;44.918;8.614;2023-08-17T10:28:14;37.73;33.56
77056;SHT30;67471;44.918;8.614;2023-08-17T10:31:18;37.69;33.37
77056;SHT30;67471;44.918;8.614;2023-08-17T10:34:23;37.60;33.60
77056;SHT30;67471;44.918;8.614;2023-08-17T10:37:27;37.74;33.56
77056;SHT30;67471;44.918;8.614;2023-08-17T10:40:41;37.93;32.37
77056;SHT30;67471;44.918;8.614;2023-08-17T10:46:57;37.59;32.66
77056;SHT30;67471;44.918;8.614;2023-08-17T10:53:24;38.03;31.71
77056;SHT30;67471;44.918;8.614;2023-08-17T10:56:27;37.46;32.53
77056;SHT30;67471;44.918;8.614;2023-08-17T10:59:34;37.66;32.19
77056;SHT30;67471;44.918;8.614;2023-08-17T11:02:37;37.90;31.73
77056;SHT30;67471;44.918;8.614;2023-08-17T11:08:51;37.32;31.69
77056;SHT30;67471;44.918;8.614;2023-08-17T11:11:56;37.33;31.37
77056;SHT30;67471;44.918;8.614;2023-08-17T11:15:03;37.62;30.81
77056;SHT30;67471;44.918;8.614;2023-08-17T11:18:06;37.66;30.56
77056;SHT30;67471;44.918;8.614;2023-08-17T11:21:10;37.74;30.51
77056;SHT30;67471;44.918;8.614;2023-08-17T11:24:17;37.63;30.34
77056;SHT30;67471;44.918;8.614;2023-08-17T11:27:21;37.42;30.48
77056;SHT30;67471;44.918;8.614;2023-08-17T11:30:24;37.26;30.64
77056;SHT30;67471;44.918;8.614;2023-08-17T11:33:29;37.38;30.82
77056;SHT30;67471;44.918;8.614;2023-08-17T11:36:33;37.60;30.14
77056;SHT30;67471;44.918;8.614;2023-08-17T11:39:37;37.77;29.86
77056;SHT30;67471;44.918;8.614;2023-08-17T11:42:41;37.80;29.02
77056;SHT30;67471;44.918;8.614;2023-08-17T11:45:44;37.35;29.09
77056;SHT30;67471;44.918;8.614;2023-08-17T11:48:48;37.26;28.49
77056;SHT30;67471;44.918;8.614;2023-08-17T11:51:52;37.33;28.59
77056;SHT30;67471;44.918;8.614;2023-08-17T11:54:58;37.46;27.69
77056;SHT30;67471;44.918;8.614;2023-08-17T11:58:03;37.38;28.19
77056;SHT30;67471;44.918;8.614;2023-08-17T12:01:08;37.62;28.56
77056;SHT30;67471;44.918;8.614;2023-08-17T12:04:12;37.90;28.55
77056;SHT30;67471;44.918;8.614;2023-08-17T12:07:16;37.60;28.52
77056;SHT30;67471;44.918;8.614;2023-08-17T12:10:23;37.14;28.74
77056;SHT30;67471;44.918;8.614;2023-08-17T12:13:33;36.98;29.16
77056;SHT30;67471;44.918;8.614;2023-08-17T12:16:46;37.12;29.14
77056;SHT30;67471;44.918;8.614;2023-08-17T12:19:54;36.75;29.57
77056;SHT30;67471;44.918;8.614;2023-08-17T12:22:58;36.37;29.54
77056;SHT30;67471;44.918;8.614;2023-08-17T12:26:02;36.54;29.38
77056;SHT30;67471;44.918;8.614;2023-08-17T12:29:06;36.92;29.20
77056;SHT30;67471;44.918;8.614;2023-08-17T12:32:10;37.19;29.23
77056;SHT30;67471;44.918;8.614;2023-08-17T12:35:13;37.32;29.33
77056;SHT30;67471;44.918;8.614;2023-08-17T12:38:17;37.56;29.60
77056;SHT30;67471;44.918;8.614;2023-08-17T12:41:24;37.76;29.77
77056;SHT30;67471;44.918;8.614;2023-08-17T12:44:27;37.89;29.80
77056;SHT30;67471;44.918;8.614;2023-08-17T12:47:31;38.16;29.35
77056;SHT30;67471;44.918;8.614;2023-08-17T12:50:35;38.11;29.10
77056;SHT30;67471;44.918;8.614;2023-08-17T12:53:38;38.17;29.14
77056;SHT30;67471;44.918;8.614;2023-08-17T12:56:42;38.11;28.99
77056;SHT30;67471;44.918;8.614;2023-08-17T12:59:46;38.13;28.98
77056;SHT30;67471;44.918;8.614;2023-08-17T13:02:49;38.11;29.02
77056;SHT30;67471;44.918;8.614;2023-08-17T13:05:54;38.34;28.61
77056;SHT30;67471;44.918;8.614;2023-08-17T13:09:00;38.72;28.61
77056;SHT30;67471;44.918;8.614;2023-08-17T13:12:05;38.92;31.75
77056;SHT30;67471;44.918;8.614;2023-08-17T13:15:11;38.91;34.93
77056;SHT30;67471;44.918;8.614;2023-08-17T13:18:14;38.76;35.34
77056;SHT30;67471;44.918;8.614;2023-08-17T13:21:19;38.59;35.54
77056;SHT30;67471;44.918;8.614;2023-08-17T13:24:23;38.65;35.31
77056;SHT30;67471;44.918;8.614;2023-08-17T13:27:27;38.57;35.17
77056;SHT30;67471;44.918;8.614;2023-08-17T13:30:30;38.59;35.01
77056;SHT30;67471;44.918;8.614;2023-08-17T13:33:34;38.55;35.00
77056;SHT30;67471;44.918;8.614;2023-08-17T13:36:38;38.49;34.63
77056;SHT30;67471;44.918;8.614;2023-08-17T13:39:42;38.41;34.86
77056;SHT30;67471;44.918;8.614;2023-08-17T13:42:45;38.25;35.08
77056;SHT30;67471;44.918;8.614;2023-08-17T13:45:49;38.04;35.43
77056;SHT30;67471;44.918;8.614;2023-08-17T13:48:53;37.94;35.60
77056;SHT30;67471;44.918;8.614;2023-08-17T13:51:57;37.94;35.43
77056;SHT30;67471;44.918;8.614;2023-08-17T13:55:04;37.74;35.42
77056;SHT30;67471;44.918;8.614;2023-08-17T13:58:07;37.62;35.61
77056;SHT30;67471;44.918;8.614;2023-08-17T14:01:13;37.55;35.66
77056;SHT30;67471;44.918;8.614;2023-08-17T14:04:17;37.69;35.32
77056;SHT30;67471;44.918;8.614;2023-08-17T14:07:22;37.76;35.17
77056;SHT30;67471;44.918;8.614;2023-08-17T14:10:25;37.70;35.15
77056;SHT30;67471;44.918;8.614;2023-08-17T14:13:32;37.91;34.80
77056;SHT30;67471;44.918;8.614;2023-08-17T14:16:36;38.10;34.75
77056;SHT30;67471;44.918;8.614;2023-08-17T14:19:39;38.25;34.95
77056;SHT30;67471;44.918;8.614;2023-08-17T14:22:45;38.32;34.62
77056;SHT30;67471;44.918;8.614;2023-08-17T14:25:49;38.16;34.77
77056;SHT30;67471;44.918;8.614;2023-08-17T14:28:55;37.99;35.52
77056;SHT30;67471;44.918;8.614;2023-08-17T14:31:59;37.70;35.70
77056;SHT30;67471;44.918;8.614;2023-08-17T14:35:02;37.59;35.95
77056;SHT30;67471;44.918;8.614;2023-08-17T14:38:05;37.73;35.85
77056;SHT30;67471;44.918;8.614;2023-08-17T14:41:10;37.72;36.30
77056;SHT30;67471;44.918;8.614;2023-08-17T14:44:14;37.72;36.40
77056;SHT30;67471;44.918;8.614;2023-08-17T14:47:23;37.60;36.99
77056;SHT30;67471;44.918;8.614;2023-08-17T14:50:26;37.49;37.34
77056;SHT30;67471;44.918;8.614;2023-08-17T14:53:30;37.45;37.18
77056;SHT30;67471;44.918;8.614;2023-08-17T14:56:33;37.39;37.48
77056;SHT30;67471;44.918;8.614;2023-08-17T14:59:37;37.47;37.52
77056;SHT30;67471;44.918;8.614;2023-08-17T15:02:40;37.45;37.13
77056;SHT30;67471;44.918;8.614;2023-08-17T15:05:43;37.18;36.70
77056;SHT30;67471;44.918;8.614;2023-08-17T15:08:47;37.03;37.01
77056;SHT30;67471;44.918;8.614;2023-08-17T15:11:50;36.87;37.62
77056;SHT30;67471;44.918;8.614;2023-08-17T15:14:54;36.40;38.64
77056;SHT30;67471;44.918;8.614;2023-08-17T15:17:57;36.27;38.41
77056;SHT30;67471;44.918;8.614;2023-08-17T15:21:00;36.02;37.42
77056;SHT30;67471;44.918;8.614;2023-08-17T15:24:04;36.07;37.40
77056;SHT30;67471;44.918;8.614;2023-08-17T15:27:07;36.29;36.82
77056;SHT30;67471;44.918;8.614;2023-08-17T15:30:11;36.16;37.03
77056;SHT30;67471;44.918;8.614;2023-08-17T15:33:15;35.90;37.40
77056;SHT30;67471;44.918;8.614;2023-08-17T15:36:18;35.82;37.33
77056;SHT30;67471;44.918;8.614;2023-08-17T15:39:25;35.79;36.92
77056;SHT30;67471;44.918;8.614;2023-08-17T15:42:28;35.86;37.41
77056;SHT30;67471;44.918;8.614;2023-08-17T15:45:31;35.94;37.46
77056;SHT30;67471;44.918;8.614;2023-08-17T15:48:35;35.94;37.40
77056;SHT30;67471;44.918;8.614;2023-08-17T15:51:40;35.94;37.62
77056;SHT30;67471;44.918;8.614;2023-08-17T15:54:44;35.96;37.88
77056;SHT30;67471;44.918;8.614;2023-08-17T15:57:48;36.02;38.07
77056;SHT30;67471;44.918;8.614;2023-08-17T16:00:51;35.82;38.51
77056;SHT30;67471;44.918;8.614;2023-08-17T16:03:54;35.71;38.51
77056;SHT30;67471;44.918;8.614;2023-08-17T16:06:57;35.63;38.73
77056;SHT30;67471;44.918;8.614;2023-08-17T16:10:01;35.56;38.89
77056;SHT30;67471;44.918;8.614;2023-08-17T16:13:04;35.58;38.90
77056;SHT30;67471;44.918;8.614;2023-08-17T16:16:08;35.48;38.68
77056;SHT30;67471;44.918;8.614;2023-08-17T16:19:11;35.24;38.73
77056;SHT30;67471;44.918;8.614;2023-08-17T16:22:15;35.27;38.60
77056;SHT30;67471;44.918;8.614;2023-08-17T16:25:18;35.31;38.38
77056;SHT30;67471;44.918;8.614;2023-08-17T16:28:21;35.46;38.36
77056;SHT30;67471;44.918;8.614;2023-08-17T16:31:24;35.51;38.45
77056;SHT30;67471;44.918;8.614;2023-08-17T16:34:31;35.55;38.72
77056;SHT30;67471;44.918;8.614;2023-08-17T16:37:35;35.63;38.32
77056;SHT30;67471;44.918;8.614;2023-08-17T16:40:39;35.56;38.12
77056;SHT30;67471;44.918;8.614;2023-08-17T16:43:42;35.46;38.27
77056;SHT30;67471;44.918;8.614;2023-08-17T16:46:45;35.45;38.32
77056;SHT30;67471;44.918;8.614;2023-08-17T16:49:48;35.48;38.29
77056;SHT30;67471;44.918;8.614;2023-08-17T16:52:52;35.58;38.72
77056;SHT30;67471;44.918;8.614;2023-08-17T16:55:57;35.55;38.88
77056;SHT30;67471;44.918;8.614;2023-08-17T16:59:01;35.55;39.17
77056;SHT30;67471;44.918;8.614;2023-08-17T17:02:04;35.49;39.40
77056;SHT30;67471;44.918;8.614;2023-08-17T17:05:08;35.37;39.86
77056;SHT30;67471;44.918;8.614;2023-08-17T17:08:11;35.27;40.34
77056;SHT30;67471;44.918;8.614;2023-08-17T17:11:15;35.17;40.85
77056;SHT30;67471;44.918;8.614;2023-08-17T17:14:18;35.14;40.89
77056;SHT30;67471;44.918;8.614;2023-08-17T17:17:21;35.14;40.84
77056;SHT30;67471;44.918;8.614;2023-08-17T17:20:24;34.97;41.64
77056;SHT30;67471;44.918;8.614;2023-08-17T17:23:27;34.90;41.82
77056;SHT30;67471;44.918;8.614;2023-08-17T17:26:31;34.82;42.14
77056;SHT30;67471;44.918;8.614;2023-08-17T17:29:36;34.67;42.59
77056;SHT30;67471;44.918;8.614;2023-08-17T17:32:39;34.63;42.95
77056;SHT30;67471;44.918;8.614;2023-08-17T17:35:43;34.56;43.02
77056;SHT30;67471;44.918;8.614;2023-08-17T17:38:46;34.50;42.95
77056;SHT30;67471;44.918;8.614;2023-08-17T17:41:49;34.42;42.88
77056;SHT30;67471;44.918;8.614;2023-08-17T17:44:52;34.29;43.20
77056;SHT30;67471;44.918;8.614;2023-08-17T17:47:56;34.26;43.36
77056;SHT30;67471;44.918;8.614;2023-08-17T17:50:59;34.09;43.82
77056;SHT30;67471;44.918;8.614;2023-08-17T17:54:02;33.92;44.33
77056;SHT30;67471;44.918;8.614;2023-08-17T17:57:06;33.91;44.18
77056;SHT30;67471;44.918;8.614;2023-08-17T18:00:10;33.67;44.31
77056;SHT30;67471;44.918;8.614;2023-08-17T18:03:18;33.62;44.32
77056;SHT30;67471;44.918;8.614;2023-08-17T18:06:22;33.51;44.13
77056;SHT30;67471;44.918;8.614;2023-08-17T18:09:25;33.31;44.49
77056;SHT30;67471;44.918;8.614;2023-08-17T18:12:29;33.26;44.66
77056;SHT30;67471;44.918;8.614;2023-08-17T18:15:35;33.14;45.00
77056;SHT30;67471;44.918;8.614;2023-08-17T18:18:38;33.08;44.91
77056;SHT30;67471;44.918;8.614;2023-08-17T18:21:42;33.07;44.78
77056;SHT30;67471;44.918;8.614;2023-08-17T18:24:48;32.99;44.60
77056;SHT30;67471;44.918;8.614;2023-08-17T18:27:53;32.91;44.78
77056;SHT30;67471;44.918;8.614;2023-08-17T18:30:57;32.90;44.65
77056;SHT30;67471;44.918;8.614;2023-08-17T18:34:00;32.95;44.44
77056;SHT30;67471;44.918;8.614;2023-08-17T18:37:03;32.90;44.54
77056;SHT30;67471;44.918;8.614;2023-08-17T18:40:07;32.87;44.53
77056;SHT30;67471;44.918;8.614;2023-08-17T18:43:12;32.83;44.50
77056;SHT30;67471;44.918;8.614;2023-08-17T18:46:15;32.79;44.71
77056;SHT30;67471;44.918;8.614;2023-08-17T18:49:20;32.83;44.73
77056;SHT30;67471;44.918;8.614;2023-08-17T18:52:23;32.72;45.03
77056;SHT30;67471;44.918;8.614;2023-08-17T18:55:26;32.66;45.29
77056;SHT30;67471;44.918;8.614;2023-08-17T18:58:32;32.45;45.37
77056;SHT30;67471;44.918;8.614;2023-08-17T19:01:35;32.46;45.16
77056;SHT30;67471;44.918;8.614;2023-08-17T19:04:39;32.42;44.91
77056;SHT30;67471;44.918;8.614;2023-08-17T19:07:43;32.40;44.79
77056;SHT30;67471;44.918;8.614;2023-08-17T19:10:46;32.24;45.36
77056;SHT30;67471;44.918;8.614;2023-08-17T19:13:49;32.22;45.52
77056;SHT30;67471;44.918;8.614;2023-08-17T19:16:52;32.14;45.75
77056;SHT30;67471;44.918;8.614;2023-08-17T19:19:56;32.12;45.76
77056;SHT30;67471;44.918;8.614;2023-08-17T19:22:59;32.02;46.03
77056;SHT30;67471;44.918;8.614;2023-08-17T19:26:02;31.88;46.40
77056;SHT30;67471;44.918;8.614;2023-08-17T19:29:05;31.98;46.11
77056;SHT30;67471;44.918;8.614;2023-08-17T19:32:09;32.01;46.18
77056;SHT30;67471;44.918;8.614;2023-08-17T19:35:12;31.95;46.24
77056;SHT30;67471;44.918;8.614;2023-08-17T19:38:16;31.92;46.17